Portada
METAR-TAF:

METAR-TAF

Aeroports :

Aeroport d'Hèlsinki-Vantaa

Hèlsinki, Finlàndia

latitud: 60-19N, longitud: 024-58E, altitud: 51 m

Observació

L'informe es va fer fa 40 minuts, a les 04:50 UTC
Vent 7 kt del Oest/Sud-Oest
Temperatura -3°C
Humitat 93%
Pressió 1033 hPa
Visibilitat 10 km o més
Cel ennuvolat a una alçada de 600 ft

METAR: EFHK 200450Z 25007KT 9999 BKN006 M03/M04 Q1033 NOSIG

Hora: 07:30 (05:30 UTC)

Pronòstic

L'informe es va fer fa 2 hores i 13 minuts, a les 03:17 UTC
Pronòstic vàlid del 20 a les 03 UTC al 21 a les 03 UTC
Vent 4 kt del Oest
Visibilitat 10 km o més
sense núvols per sota de 1500 mi sense presència de cumulonimbus.
Temporalment
l' 20 a les 03 UTC al 20 a les 21 UTC
Cel ennuvolat a una alçada de 900 ft

TAF: EFHK 200317Z 2003/2103 27004KT CAVOK TEMPO 2003/2021 BKN009

Observacions i pronòstics meteorològics de més de 4000 aeroports (METAR i TAF).

Les estacions disponibles són els punts grocs i vermells al mapa.

Posi el ratolí al punt desitjat per veure el nom de l'estació.

Feu clic per veure les observacions i els pronòstics meteorològics.

Per canviar el mapa: feu clic els botons verds amb una creu de color negre per apropar; al botó verd amb un guió per allunyar la imatge; o en les fletxes verdes per a mapes adjacents.


METAR-TAF: